Terminal Aerodrome Forecast
Issued by NWS

Home | Current Version | Previous Version | Graphics & Text | Print | Product List | Glossary On
Versions: 1 2 3 4 5 6 7 8 9 10 11 12 13 14
000
FTUS43 KBIS 181700
TAFJMS
TAF
KJMS 181720Z 1818/1918 13027G36KT P6SM SCT040
     FM190500 12021G28KT P6SM VCSH BKN060
     FM191000 26014G21KT P6SM SCT020=

USA.gov is the U.S. government's official web portal to all federal, state and local government web resources and services.